Time;durP1;ratioP1;P1;durP2;ratioP2;P2;SDS_P1;SDS_P2;PMS_P1;PMS_P2;Temp;Humidity;BMP_temperature;BMP_pressure;BME280_temperature;BME280_humidity;BME280_pressure;Samples;Min_cycle;Max_cycle;Signal;HPM_P1;HPM_P2
2023/08/30 00:02:25;;;;;;;4.43;3.77;;;14.60;99.90;;;;;;5247062;28;20174;-43
2023/08/30 00:05:03;;;;;;;4.63;2.87;;;14.50;99.90;;;;;;5242906;28;20199;-42
2023/08/30 00:07:34;;;;;;;5.23;3.23;;;14.50;99.90;;;;;;5261894;28;20178;-43
2023/08/30 00:10:05;;;;;;;3.33;3.03;;;14.50;99.90;;;;;;5259847;28;20460;-43
2023/08/30 00:12:36;;;;;;;4.00;2.90;;;14.50;99.90;;;;;;5246659;28;20179;-43
2023/08/30 00:15:07;;;;;;;3.47;3.27;;;14.50;99.90;;;;;;5243678;28;20444;-43
2023/08/30 00:17:37;;;;;;;2.97;2.77;;;14.50;99.90;;;;;;5258697;28;20521;-43
2023/08/30 00:20:09;;;;;;;7.87;3.70;;;14.50;99.90;;;;;;5247100;28;20456;-42
2023/08/30 00:22:39;;;;;;;4.53;3.20;;;14.40;99.90;;;;;;5245387;28;20178;-43
2023/08/30 00:25:10;;;;;;;4.10;3.47;;;14.40;99.90;;;;;;5245942;28;20547;-43
2023/08/30 00:27:41;;;;;;;3.60;3.30;;;14.40;99.90;;;;;;5244613;28;20649;-42
2023/08/30 00:30:12;;;;;;;3.83;3.53;;;14.40;99.90;;;;;;5246260;28;20209;-42
2023/08/30 00:32:44;;;;;;;3.37;3.17;;;14.40;99.90;;;;;;5246979;28;20832;-42
2023/08/30 00:35:15;;;;;;;3.83;3.53;;;14.40;99.90;;;;;;5248037;28;20460;-42
2023/08/30 00:37:45;;;;;;;2.90;2.80;;;14.40;99.90;;;;;;5244059;28;20471;-42
2023/08/30 00:40:16;;;;;;;3.10;2.90;;;14.40;99.90;;;;;;5246162;28;20230;-42
2023/08/30 00:42:47;;;;;;;3.10;3.00;;;14.40;99.90;;;;;;5246016;28;20182;-42
2023/08/30 00:45:17;;;;;;;8.93;2.97;;;14.30;99.90;;;;;;5260690;28;20202;-42
2023/08/30 00:47:48;;;;;;;3.60;3.30;;;14.30;99.90;;;;;;5260615;28;20227;-41
2023/08/30 00:50:19;;;;;;;6.23;3.97;;;14.40;99.90;;;;;;5262308;28;20205;-42
2023/08/30 00:52:50;;;;;;;8.40;3.57;;;14.40;99.90;;;;;;5246080;28;20657;-43
2023/08/30 00:55:20;;;;;;;4.00;3.70;;;14.40;99.90;;;;;;5261049;28;20491;-42
2023/08/30 00:57:51;;;;;;;4.70;4.00;;;14.40;99.90;;;;;;5245180;28;20304;-42
2023/08/30 01:00:22;;;;;;;5.03;3.97;;;14.40;99.90;;;;;;5224585;28;1071275;-42
2023/08/30 01:02:52;;;;;;;4.10;3.60;;;14.40;99.90;;;;;;5228328;28;20470;-42
2023/08/30 01:05:24;;;;;;;4.00;3.60;;;14.40;99.90;;;;;;5245211;28;20205;-42
2023/08/30 01:07:55;;;;;;;5.47;3.87;;;14.40;99.90;;;;;;5246354;28;20646;-42
2023/08/30 01:10:51;;;;;;;4.90;3.50;;;14.40;99.90;;;;;;5245169;28;20488;-42
2023/08/30 01:13:22;;;;;;;4.10;3.70;;;14.40;99.90;;;;;;5245752;28;20198;-43
2023/08/30 01:15:54;;;;;;;3.30;3.10;;;14.40;99.90;;;;;;5245784;28;20428;-43
2023/08/30 01:18:32;;;;;;;3.90;3.50;;;14.40;99.90;;;;;;5246638;28;20471;-42
2023/08/30 01:21:08;;;;;;;4.10;3.80;;;14.40;99.90;;;;;;5244503;28;20463;-46
2023/08/30 01:23:58;;;;;;;3.37;2.90;;;14.40;99.90;;;;;;5230171;28;20790;-42
2023/08/30 01:27:04;;;;;;;3.97;2.60;;;14.40;99.90;;;;;;5247362;28;20425;-41
2023/08/30 01:29:40;;;;;;;3.43;3.07;;;14.40;99.90;;;;;;5250645;28;20531;-42
2023/08/30 01:32:12;;;;;;;3.43;3.20;;;14.40;99.90;;;;;;5250220;28;20440;-42
2023/08/30 01:34:46;;;;;;;5.33;3.30;;;14.40;99.90;;;;;;5248750;28;20444;-42
2023/08/30 01:37:18;;;;;;;3.10;2.40;;;14.40;99.90;;;;;;5252246;28;20436;-42
2023/08/30 01:39:50;;;;;;;2.97;2.87;;;14.40;99.90;;;;;;5233136;28;20547;-41
2023/08/30 01:42:22;;;;;;;3.07;2.87;;;14.40;99.90;;;;;;5226194;28;20448;-41
2023/08/30 01:44:57;;;;;;;3.00;2.80;;;14.40;99.90;;;;;;5247423;28;20547;-42
2023/08/30 01:47:28;;;;;;;3.30;3.10;;;14.40;99.90;;;;;;5249475;28;20455;-42
2023/08/30 01:50:00;;;;;;;2.87;2.77;;;14.50;99.90;;;;;;5254304;28;20481;-42
2023/08/30 01:52:31;;;;;;;6.67;2.80;;;14.40;99.90;;;;;;5258101;28;20476;-42
2023/08/30 01:55:03;;;;;;;6.40;3.43;;;14.30;99.90;;;;;;5258532;28;20475;-42
2023/08/30 01:57:34;;;;;;;3.40;3.27;;;14.30;99.90;;;;;;5256191;28;20437;-42
2023/08/30 02:00:05;;;;;;;3.30;3.10;;;14.30;99.90;;;;;;5273527;28;20468;-42
2023/08/30 02:02:36;;;;;;;2.47;2.40;;;14.40;99.90;;;;;;5257529;28;20206;-42
2023/08/30 02:05:06;;;;;;;2.73;2.53;;;14.30;99.90;;;;;;5274820;28;20471;-42
2023/08/30 02:07:48;;;;;;;2.53;2.43;;;14.30;99.90;;;;;;5259185;28;20186;-42
2023/08/30 02:10:27;;;;;;;3.40;3.10;;;14.30;99.90;;;;;;5250762;28;20190;-41
2023/08/30 02:13:00;;;;;;;3.10;3.00;;;14.30;99.90;;;;;;5277041;28;21119;-42
2023/08/30 02:15:35;;;;;;;3.20;3.00;;;14.30;99.90;;;;;;5258947;28;20441;-42
2023/08/30 02:18:06;;;;;;;3.17;2.97;;;14.20;99.90;;;;;;5257182;28;20528;-42
2023/08/30 02:20:37;;;;;;;4.80;2.93;;;14.10;99.90;;;;;;5246146;28;20476;-42
2023/08/30 02:23:10;;;;;;;3.20;3.00;;;14.10;99.90;;;;;;5255496;28;20179;-41
2023/08/30 02:25:40;;;;;;;2.93;2.77;;;14.00;99.90;;;;;;5256329;28;20213;-42
2023/08/30 02:28:11;;;;;;;3.03;2.87;;;14.00;99.90;;;;;;5250706;28;20440;-42
2023/08/30 02:30:41;;;;;;;2.73;2.43;;;14.00;99.90;;;;;;5249621;28;20202;-41
2023/08/30 02:33:12;;;;;;;2.43;2.33;;;14.00;99.90;;;;;;5246016;28;20186;-42
2023/08/30 02:35:43;;;;;;;3.30;2.90;;;13.90;99.90;;;;;;5246757;28;20233;-42
2023/08/30 02:38:13;;;;;;;3.07;2.97;;;13.90;99.90;;;;;;5266649;28;20186;-42
2023/08/30 02:40:44;;;;;;;3.60;3.30;;;14.00;99.90;;;;;;5249300;28;20206;-42
2023/08/30 02:43:14;;;;;;;2.87;2.73;;;14.00;99.90;;;;;;5266153;28;20182;-42
2023/08/30 02:45:45;;;;;;;2.70;2.70;;;13.90;99.90;;;;;;5263478;28;20211;-42
2023/08/30 02:48:16;;;;;;;2.57;2.47;;;13.90;99.90;;;;;;5249312;28;20862;-42
2023/08/30 02:50:46;;;;;;;3.20;3.00;;;13.90;99.90;;;;;;5249707;28;20192;-42
2023/08/30 02:53:17;;;;;;;3.07;2.70;;;13.90;99.90;;;;;;5249364;28;20703;-42
2023/08/30 02:55:48;;;;;;;5.50;3.50;;;13.90;99.90;;;;;;5249185;28;20197;-42
2023/08/30 02:58:18;;;;;;;3.43;3.20;;;13.90;99.90;;;;;;5249101;28;20246;-42
2023/08/30 03:00:49;;;;;;;2.93;2.60;;;13.90;99.90;;;;;;5264389;28;20251;-42
2023/08/30 03:03:19;;;;;;;3.30;3.20;;;13.80;99.90;;;;;;5250221;28;20186;-42
2023/08/30 03:05:50;;;;;;;2.60;2.40;;;13.80;99.90;;;;;;5251146;28;20210;-42
2023/08/30 03:08:21;;;;;;;3.40;3.20;;;13.70;99.90;;;;;;5251236;28;20543;-42
2023/08/30 03:10:51;;;;;;;3.10;3.00;;;13.60;99.90;;;;;;5257499;28;20220;-42
2023/08/30 03:13:22;;;;;;;4.77;2.90;;;13.60;99.90;;;;;;5273548;28;20650;-41
2023/08/30 03:15:52;;;;;;;3.37;3.23;;;13.60;99.90;;;;;;5258394;28;20222;-41
2023/08/30 03:18:23;;;;;;;3.40;3.10;;;13.50;99.90;;;;;;5242110;28;20194;-42
2023/08/30 03:21:02;;;;;;;2.77;2.67;;;13.40;99.90;;;;;;5259662;28;20182;-41
2023/08/30 03:23:32;;;;;;;6.00;3.10;;;13.40;99.90;;;;;;5258060;28;20182;-43
2023/08/30 03:26:16;;;;;;;3.20;3.00;;;13.40;99.90;;;;;;5241864;28;20429;-42
2023/08/30 03:28:47;;;;;;;3.97;3.77;;;13.40;99.90;;;;;;5256671;28;20194;-42
2023/08/30 03:31:19;;;;;;;3.50;3.27;;;13.30;99.90;;;;;;5257338;28;20992;-42
2023/08/30 03:33:49;;;;;;;3.40;3.20;;;13.30;99.90;;;;;;5271106;28;20209;-42
2023/08/30 03:36:20;;;;;;;4.10;3.10;;;13.30;99.90;;;;;;5252592;28;20806;-43
2023/08/30 03:38:51;;;;;;;3.27;3.17;;;13.30;99.90;;;;;;5249240;28;20289;-42
2023/08/30 03:41:22;;;;;;;3.40;3.20;;;13.30;99.90;;;;;;5247128;28;20443;-42
2023/08/30 03:43:52;;;;;;;6.93;3.57;;;13.30;99.90;;;;;;5247300;28;20588;-42
2023/08/30 03:46:23;;;;;;;2.83;2.73;;;13.30;99.90;;;;;;5247151;28;20534;-43
2023/08/30 03:48:54;;;;;;;3.60;3.37;;;13.30;99.90;;;;;;5255515;28;20206;-43
2023/08/30 03:51:24;;;;;;;3.73;3.53;;;13.30;99.90;;;;;;5255162;28;20178;-42
2023/08/30 03:53:56;;;;;;;4.10;3.73;;;13.30;99.90;;;;;;5272258;28;20212;-42
2023/08/30 03:56:27;;;;;;;4.33;4.13;;;13.30;99.90;;;;;;5251328;28;20205;-41
2023/08/30 03:58:57;;;;;;;4.10;3.80;;;13.30;99.90;;;;;;5247326;28;20472;-42
2023/08/30 04:01:28;;;;;;;4.30;4.07;;;13.30;99.90;;;;;;5247527;28;20236;-42
2023/08/30 04:03:59;;;;;;;3.77;3.57;;;13.30;99.90;;;;;;5246861;28;20209;-41
2023/08/30 04:06:29;;;;;;;4.10;3.90;;;13.30;99.90;;;;;;5249287;28;20239;-42
2023/08/30 04:09:00;;;;;;;5.47;4.70;;;13.30;99.90;;;;;;5245305;28;20251;-42
2023/08/30 04:11:30;;;;;;;4.70;4.40;;;13.40;99.90;;;;;;5249272;28;20273;-41
2023/08/30 04:14:02;;;;;;;5.33;4.00;;;13.30;99.90;;;;;;5248260;28;20604;-41
2023/08/30 04:16:32;;;;;;;4.40;4.20;;;13.40;99.90;;;;;;5246990;28;20182;-42
2023/08/30 04:19:03;;;;;;;5.17;4.77;;;13.40;99.90;;;;;;5264312;28;20461;-43
2023/08/30 04:21:34;;;;;;;5.43;4.90;;;13.40;99.90;;;;;;5250375;28;20577;-41
2023/08/30 04:24:05;;;;;;;4.10;3.80;;;13.40;99.90;;;;;;5246947;28;20232;-42
2023/08/30 04:26:35;;;;;;;3.87;3.67;;;13.50;99.90;;;;;;5245681;28;20270;-43
2023/08/30 04:29:06;;;;;;;4.77;4.37;;;13.50;99.90;;;;;;5250753;28;20543;-42
2023/08/30 04:31:36;;;;;;;4.87;4.57;;;13.50;99.90;;;;;;5267079;28;20174;-42
2023/08/30 04:34:07;;;;;;;4.07;3.87;;;13.50;99.90;;;;;;5253386;28;21056;-42
2023/08/30 04:36:38;;;;;;;4.13;3.93;;;13.50;99.90;;;;;;5264449;28;20200;-42
2023/08/30 04:39:09;;;;;;;3.77;2.87;;;13.50;99.90;;;;;;5246602;28;20209;-42
2023/08/30 04:41:39;;;;;;;5.43;4.33;;;13.50;99.90;;;;;;5245312;28;20274;-42
2023/08/30 04:44:10;;;;;;;4.03;3.83;;;13.60;99.90;;;;;;5247708;28;20547;-42
2023/08/30 04:46:41;;;;;;;4.00;3.70;;;13.60;99.90;;;;;;5260652;28;20190;-42
2023/08/30 04:49:11;;;;;;;5.30;4.90;;;13.60;99.90;;;;;;5245366;28;20217;-42
2023/08/30 04:51:42;;;;;;;5.73;4.10;;;13.70;99.90;;;;;;5235557;28;20191;-43
2023/08/30 04:54:13;;;;;;;3.90;3.50;;;13.80;99.90;;;;;;5240298;28;20232;-41
2023/08/30 04:56:44;;;;;;;3.57;3.37;;;13.80;99.90;;;;;;5244299;28;20593;-43
2023/08/30 04:59:15;;;;;;;7.00;3.93;;;13.90;99.90;;;;;;5241978;28;20480;-54
2023/08/30 05:01:45;;;;;;;5.03;4.73;;;13.90;99.90;;;;;;5259087;28;20185;-43
2023/08/30 05:04:16;;;;;;;3.93;3.73;;;14.00;99.90;;;;;;5242973;28;20254;-43
2023/08/30 05:06:46;;;;;;;4.23;3.83;;;14.00;99.90;;;;;;5246548;28;20197;-44
2023/08/30 05:09:17;;;;;;;4.40;4.10;;;14.10;99.90;;;;;;5244036;28;20238;-42
2023/08/30 05:11:48;;;;;;;3.50;3.30;;;14.20;99.90;;;;;;5261265;28;20213;-43
2023/08/30 05:14:18;;;;;;;9.00;3.90;;;14.40;99.90;;;;;;5244229;28;20205;-42
2023/08/30 05:16:49;;;;;;;4.77;4.00;;;14.60;99.90;;;;;;5246611;28;20186;-44
2023/08/30 05:19:20;;;;;;;7.03;4.40;;;14.80;99.90;;;;;;5241921;28;20765;-44
2023/08/30 05:21:54;;;;;;;5.27;3.90;;;14.90;99.90;;;;;;5245085;28;20531;-43
2023/08/30 05:24:26;;;;;;;2.93;2.83;;;15.10;99.90;;;;;;5246081;28;20259;-43
2023/08/30 05:26:57;;;;;;;3.60;3.40;;;15.20;99.90;;;;;;5242736;28;20849;-43
2023/08/30 05:29:28;;;;;;;3.87;3.67;;;15.40;99.90;;;;;;5240558;28;20484;-42
2023/08/30 05:31:58;;;;;;;3.43;3.23;;;15.40;99.90;;;;;;5251485;28;20186;-41
2023/08/30 05:34:29;;;;;;;4.80;4.20;;;15.60;99.90;;;;;;5236979;28;20186;-43
2023/08/30 05:36:59;;;;;;;3.00;2.87;;;15.70;99.90;;;;;;5237865;28;20256;-42
2023/08/30 05:39:30;;;;;;;3.33;3.23;;;15.90;99.90;;;;;;5243089;28;20202;-42
2023/08/30 05:42:01;;;;;;;3.00;2.83;;;15.90;99.90;;;;;;5250859;28;20259;-42
2023/08/30 05:44:31;;;;;;;4.27;3.10;;;15.90;99.90;;;;;;5255729;28;20202;-42
2023/08/30 05:47:02;;;;;;;3.70;3.00;;;16.00;99.90;;;;;;5271698;28;20272;-42
2023/08/30 05:49:32;;;;;;;3.03;2.90;;;15.90;99.90;;;;;;5255860;28;20235;-42
2023/08/30 05:52:03;;;;;;;7.70;2.80;;;16.00;99.90;;;;;;5251068;28;20178;-42
2023/08/30 05:54:34;;;;;;;3.00;2.70;;;16.10;99.90;;;;;;5248138;28;20560;-41
2023/08/30 05:57:05;;;;;;;11.27;3.10;;;16.00;99.90;;;;;;5247530;28;20186;-42
2023/08/30 05:59:35;;;;;;;6.40;3.63;;;16.10;99.90;;;;;;5243009;28;20708;-43
2023/08/30 06:02:06;;;;;;;2.90;2.70;;;16.30;99.90;;;;;;5250079;28;20253;-43
2023/08/30 06:04:37;;;;;;;2.40;2.30;;;16.40;99.90;;;;;;5246611;28;20201;-43
2023/08/30 06:07:08;;;;;;;4.80;2.80;;;16.60;99.90;;;;;;5249630;28;20839;-42
2023/08/30 06:09:38;;;;;;;9.73;3.50;;;17.10;99.90;;;;;;5248324;28;20497;-43
2023/08/30 06:12:09;;;;;;;2.30;2.30;;;17.60;99.90;;;;;;5236868;28;20178;-43
2023/08/30 06:14:40;;;;;;;6.20;3.30;;;18.20;99.90;;;;;;5238151;28;20277;-43
2023/08/30 06:17:11;;;;;;;2.63;2.50;;;18.60;99.90;;;;;;5239981;28;20535;-43
2023/08/30 06:19:41;;;;;;;2.70;2.57;;;19.20;99.90;;;;;;5240049;28;20210;-43
2023/08/30 06:22:12;;;;;;;2.17;2.13;;;19.50;99.90;;;;;;5246819;28;20655;-42
2023/08/30 06:24:43;;;;;;;3.00;2.00;;;19.40;99.90;;;;;;5242758;28;20308;-43
2023/08/30 06:27:13;;;;;;;3.00;2.33;;;19.10;99.90;;;;;;5242057;28;20204;-43
2023/08/30 06:29:44;;;;;;;2.63;2.43;;;18.70;99.90;;;;;;5241593;28;20202;-43
2023/08/30 06:32:14;;;;;;;6.63;2.80;;;18.30;99.90;;;;;;5241973;28;20308;-44
2023/08/30 06:34:45;;;;;;;2.47;2.17;;;18.10;99.90;;;;;;5246522;28;20179;-44
2023/08/30 06:37:17;;;;;;;2.37;2.27;;;18.00;99.90;;;;;;5245882;28;20186;-42
2023/08/30 06:39:47;;;;;;;2.17;2.07;;;17.90;99.90;;;;;;5250548;28;20552;-43
2023/08/30 06:42:18;;;;;;;2.30;2.20;;;18.00;99.90;;;;;;5254268;28;20436;-42
2023/08/30 06:44:48;;;;;;;2.57;2.47;;;18.10;99.90;;;;;;5269766;28;20206;-42
2023/08/30 06:47:19;;;;;;;2.40;2.30;;;18.20;99.90;;;;;;5251343;28;20657;-43
2023/08/30 06:49:50;;;;;;;4.50;2.40;;;18.30;99.90;;;;;;5244777;28;20201;-46
2023/08/30 06:52:20;;;;;;;2.80;2.60;;;18.70;99.90;;;;;;5245490;28;20178;-41
2023/08/30 06:54:51;;;;;;;1.90;1.40;;;19.10;99.90;;;;;;5245423;28;20186;-41
2023/08/30 06:57:21;;;;;;;4.33;2.80;;;19.10;99.90;;;;;;5226110;28;20189;-41
2023/08/30 06:59:52;;;;;;;2.50;2.40;;;19.20;99.90;;;;;;5243435;28;20222;-42
2023/08/30 07:02:23;;;;;;;2.27;2.17;;;19.20;99.90;;;;;;5251325;28;20183;-41
2023/08/30 07:04:53;;;;;;;2.20;1.80;;;19.20;99.90;;;;;;5248285;28;20632;-41
2023/08/30 07:07:24;;;;;;;2.00;2.00;;;19.10;99.90;;;;;;5263716;28;20214;-43
2023/08/30 07:09:55;;;;;;;5.23;1.93;;;18.90;99.90;;;;;;5259492;28;20263;-42
2023/08/30 07:12:25;;;;;;;4.43;2.33;;;18.80;99.90;;;;;;5248896;28;20175;-40
2023/08/30 07:14:56;;;;;;;2.17;2.07;;;18.60;99.90;;;;;;5249379;28;20182;-41
2023/08/30 07:17:27;;;;;;;2.23;2.13;;;18.70;99.90;;;;;;5261422;28;20251;-41
2023/08/30 07:19:57;;;;;;;2.73;2.50;;;18.90;99.90;;;;;;5243050;28;20607;-41
2023/08/30 07:22:28;;;;;;;3.63;2.27;;;19.10;99.90;;;;;;5243796;28;20239;-41
2023/08/30 07:24:58;;;;;;;3.10;2.73;;;19.10;99.90;;;;;;5244747;28;20263;-42
2023/08/30 07:27:29;;;;;;;3.10;2.10;;;18.80;99.90;;;;;;5245745;28;20283;-41
2023/08/30 07:30:00;;;;;;;2.30;2.20;;;18.70;99.90;;;;;;5244791;28;20202;-42
2023/08/30 07:32:31;;;;;;;2.87;2.60;;;18.90;99.90;;;;;;5244630;28;20287;-41
2023/08/30 07:35:01;;;;;;;2.70;2.40;;;19.00;99.90;;;;;;5240968;28;20290;-42
2023/08/30 07:37:32;;;;;;;3.30;1.60;;;19.10;99.90;;;;;;5245975;28;20372;-42
2023/08/30 07:40:06;;;;;;;2.37;2.27;;;19.20;99.90;;;;;;5249434;28;20312;-42
2023/08/30 07:42:37;;;;;;;1.90;1.80;;;19.30;99.90;;;;;;5240801;28;20657;-44
2023/08/30 07:45:09;;;;;;;1.40;1.40;;;18.90;99.90;;;;;;5241649;28;20467;-42
2023/08/30 07:47:40;;;;;;;1.87;1.77;;;18.70;99.90;;;;;;5243807;28;20558;-42
2023/08/30 07:50:10;;;;;;;2.30;2.10;;;18.80;99.90;;;;;;5245559;28;20574;-43
2023/08/30 07:52:41;;;;;;;1.57;1.57;;;18.80;99.90;;;;;;5248265;28;20605;-43
2023/08/30 07:55:12;;;;;;;4.50;2.60;;;18.80;99.90;;;;;;5244695;28;20209;-44
2023/08/30 07:57:43;;;;;;;1.53;1.50;;;18.80;99.90;;;;;;5244379;28;20187;-41
2023/08/30 08:00:14;;;;;;;1.97;1.87;;;18.80;99.90;;;;;;5241335;28;20478;-42
2023/08/30 08:02:45;;;;;;;1.53;1.53;;;18.90;99.90;;;;;;5245872;28;20238;-42
2023/08/30 08:05:15;;;;;;;1.70;1.70;;;19.00;99.90;;;;;;5247409;28;20884;-42
2023/08/30 08:07:50;;;;;;;2.57;2.43;;;19.00;99.90;;;;;;5249732;28;20253;-42
2023/08/30 08:10:20;;;;;;;1.50;1.50;;;19.00;99.90;;;;;;5243352;28;20251;-41
2023/08/30 08:12:51;;;;;;;2.40;2.30;;;19.00;99.90;;;;;;5265903;28;20432;-41
2023/08/30 08:15:22;;;;;;;2.30;2.20;;;19.10;99.90;;;;;;5247011;28;20298;-43
2023/08/30 08:17:52;;;;;;;3.40;1.87;;;19.10;99.90;;;;;;5247640;28;20198;-40
2023/08/30 08:20:23;;;;;;;1.77;1.67;;;19.20;99.90;;;;;;5245344;28;20300;-43
2023/08/30 08:22:53;;;;;;;2.13;1.93;;;19.20;99.90;;;;;;5243577;28;20189;-42
2023/08/30 08:25:24;;;;;;;1.40;1.37;;;19.20;99.90;;;;;;5245406;28;20574;-43
2023/08/30 08:27:55;;;;;;;3.13;1.70;;;19.20;99.90;;;;;;5242542;28;20221;-42
2023/08/30 08:30:25;;;;;;;1.70;1.60;;;19.30;99.90;;;;;;5234666;28;20206;-42
2023/08/30 08:32:57;;;;;;;1.57;1.47;;;19.30;99.90;;;;;;5243264;28;20181;-43
2023/08/30 08:35:28;;;;;;;1.30;1.30;;;19.30;99.90;;;;;;5240119;28;20223;-42
2023/08/30 08:37:59;;;;;;;2.77;2.17;;;19.40;99.90;;;;;;5243097;28;20483;-41
2023/08/30 08:40:29;;;;;;;1.80;1.60;;;19.50;99.90;;;;;;5236679;28;20297;-41
2023/08/30 08:43:00;;;;;;;2.17;1.70;;;19.80;99.90;;;;;;5246800;28;20186;-41
2023/08/30 08:45:37;;;;;;;1.67;1.63;;;19.90;99.90;;;;;;5244901;28;20211;-41
2023/08/30 08:48:09;;;;;;;1.20;1.20;;;20.10;99.90;;;;;;5249008;28;20191;-42
2023/08/30 08:50:40;;;;;;;3.13;1.70;;;20.30;99.90;;;;;;5245813;28;20539;-42
2023/08/30 08:53:11;;;;;;;1.20;1.20;;;20.50;99.90;;;;;;5243281;28;20933;-41
2023/08/30 08:55:44;;;;;;;2.37;1.93;;;20.70;99.90;;;;;;5245232;28;20468;-42
2023/08/30 08:58:15;;;;;;;1.70;1.67;;;21.10;99.90;;;;;;5244824;28;20247;-42
2023/08/30 09:00:46;;;;;;;2.43;1.77;;;21.50;99.90;;;;;;5245081;28;20626;-41
2023/08/30 09:03:18;;;;;;;1.60;1.50;;;21.80;99.90;;;;;;5236880;28;20573;-41
2023/08/30 09:05:50;;;;;;;1.43;1.30;;;22.20;99.90;;;;;;5257294;28;20555;-43
2023/08/30 09:08:21;;;;;;;1.73;1.17;;;22.40;99.90;;;;;;5248299;28;20470;-41
2023/08/30 09:10:52;;;;;;;1.50;1.40;;;22.70;99.00;;;;;;5240394;28;20457;-42
2023/08/30 09:13:23;;;;;;;2.63;1.40;;;22.70;96.50;;;;;;5241613;28;20446;-41
2023/08/30 09:15:53;;;;;;;1.67;1.47;;;22.80;95.10;;;;;;5248090;28;20220;-41
2023/08/30 09:18:27;;;;;;;1.07;0.97;;;22.90;95.10;;;;;;5247167;28;20637;-40
2023/08/30 09:21:11;;;;;;;1.30;1.30;;;22.90;94.00;;;;;;5262806;28;20217;-41
2023/08/30 09:23:41;;;;;;;1.23;1.13;;;23.10;94.10;;;;;;5244915;28;20437;-42
2023/08/30 09:26:12;;;;;;;1.27;0.93;;;23.40;94.00;;;;;;5247262;28;20996;-42
2023/08/30 09:28:44;;;;;;;1.53;1.30;;;23.50;93.30;;;;;;5243558;28;20570;-42
2023/08/30 09:31:21;;;;;;;1.40;1.40;;;23.40;92.60;;;;;;5244802;28;20257;-44
2023/08/30 09:33:58;;;;;;;1.27;1.17;;;23.30;92.50;;;;;;5256265;28;20550;-42
2023/08/30 09:36:39;;;;;;;6.63;1.60;;;23.20;92.00;;;;;;5237262;28;20478;-42
2023/08/30 09:39:13;;;;;;;1.20;1.10;;;23.00;93.00;;;;;;5235684;28;20448;-42
2023/08/30 09:41:46;;;;;;;1.30;1.10;;;22.90;93.30;;;;;;5251595;28;20437;-43
2023/08/30 09:44:19;;;;;;;4.23;1.90;;;22.90;93.00;;;;;;5237526;28;20471;-42
2023/08/30 09:46:52;;;;;;;1.83;1.73;;;22.90;92.90;;;;;;5237066;28;20441;-43
2023/08/30 09:49:26;;;;;;;2.07;1.97;;;22.90;93.20;;;;;;5253150;28;21097;-43
2023/08/30 09:51:59;;;;;;;2.10;1.33;;;22.80;92.50;;;;;;5250853;28;20427;-44
2023/08/30 09:54:33;;;;;;;1.57;1.57;;;22.60;92.80;;;;;;5241135;28;20447;-43
2023/08/30 09:57:04;;;;;;;1.70;1.70;;;22.60;93.50;;;;;;5224334;28;21270;-43
2023/08/30 09:59:35;;;;;;;1.17;1.17;;;22.60;92.20;;;;;;5238227;28;20471;-45
2023/08/30 10:02:09;;;;;;;4.10;1.87;;;21.70;92.40;;;;;;5238373;28;20559;-42
2023/08/30 10:04:40;;;;;;;1.77;1.40;;;21.70;94.20;;;;;;5234727;28;20464;-42
2023/08/30 10:07:11;;;;;;;9.23;1.57;;;21.80;94.90;;;;;;5249239;28;20955;-43
2023/08/30 10:09:43;;;;;;;1.30;1.30;;;21.70;93.00;;;;;;5249379;28;20307;-43
2023/08/30 10:12:16;;;;;;;1.93;1.20;;;21.60;92.30;;;;;;5248617;28;20928;-43
2023/08/30 10:14:46;;;;;;;3.97;1.63;;;21.40;92.90;;;;;;5223091;28;20833;-42
2023/08/30 10:17:20;;;;;;;4.63;1.77;;;21.50;93.40;;;;;;5234660;28;20494;-42
2023/08/30 10:19:53;;;;;;;1.60;1.50;;;21.30;93.90;;;;;;5246642;28;20210;-43
2023/08/30 10:22:24;;;;;;;1.40;1.30;;;21.50;93.20;;;;;;5236177;28;20527;-44
2023/08/30 10:25:01;;;;;;;1.77;1.67;;;21.60;94.10;;;;;;5235636;28;20470;-41
2023/08/30 10:27:34;;;;;;;4.13;1.37;;;21.60;94.40;;;;;;5242932;28;20749;-42
2023/08/30 10:30:08;;;;;;;3.57;3.27;;;21.60;92.60;;;;;;5238725;28;20467;-42
2023/08/30 10:32:43;;;;;;;3.67;1.13;;;21.70;93.10;;;;;;5250366;28;20455;-42
2023/08/30 10:35:15;;;;;;;1.87;1.77;;;21.70;91.90;;;;;;5248469;28;20440;-42
2023/08/30 10:37:57;;;;;;;2.50;1.13;;;21.50;91.60;;;;;;5248183;28;20551;-43
2023/08/30 10:40:27;;;;;;;2.37;1.20;;;21.40;91.90;;;;;;5265136;28;20505;-45
2023/08/30 10:43:03;;;;;;;2.83;1.37;;;21.40;90.70;;;;;;5238957;28;20440;-43
2023/08/30 10:45:33;;;;;;;1.80;1.47;;;21.60;91.50;;;;;;5244356;28;20217;-42
2023/08/30 10:48:04;;;;;;;3.63;2.90;;;22.00;91.50;;;;;;5240272;28;20444;-43
2023/08/30 10:50:35;;;;;;;3.50;2.10;;;22.50;91.10;;;;;;5240132;28;20206;-42
2023/08/30 10:53:14;;;;;;;4.80;1.73;;;22.80;91.10;;;;;;5245765;28;20421;-42
2023/08/30 10:56:03;;;;;;;1.10;1.10;;;23.00;89.30;;;;;;5258028;28;20228;-41
2023/08/30 10:58:43;;;;;;;2.10;1.80;;;23.10;85.70;;;;;;5246037;28;20470;-43
2023/08/30 11:01:15;;;;;;;1.20;1.20;;;23.00;84.30;;;;;;5243866;28;20444;-41
2023/08/30 11:03:46;;;;;;;1.60;1.50;;;23.00;85.90;;;;;;5242678;28;20446;-44
2023/08/30 11:06:17;;;;;;;4.27;2.40;;;23.20;85.60;;;;;;5245810;28;20436;-41
2023/08/30 11:08:49;;;;;;;3.13;2.33;;;23.40;84.20;;;;;;5248390;28;20252;-43
2023/08/30 11:11:20;;;;;;;5.20;2.77;;;23.50;84.60;;;;;;5239764;28;20444;-41
2023/08/30 11:13:51;;;;;;;1.60;1.60;;;23.60;85.00;;;;;;5254969;28;20920;-43
2023/08/30 11:16:22;;;;;;;1.30;1.30;;;23.70;82.70;;;;;;5231986;28;20420;-41
2023/08/30 11:18:53;;;;;;;7.70;4.40;;;23.90;83.10;;;;;;5261603;28;20703;-43
2023/08/30 11:21:23;;;;;;;3.77;2.43;;;24.10;81.10;;;;;;5245043;28;20471;-44
2023/08/30 11:23:54;;;;;;;5.50;4.60;;;24.10;79.00;;;;;;5238203;28;20880;-46
2023/08/30 11:26:25;;;;;;;5.47;4.47;;;24.00;78.50;;;;;;5244772;28;20182;-42
2023/08/30 11:28:56;;;;;;;3.77;1.93;;;23.90;76.80;;;;;;5242485;28;20661;-42
2023/08/30 11:31:27;;;;;;;7.27;3.20;;;23.70;76.20;;;;;;5241090;28;20182;-41
2023/08/30 11:33:59;;;;;;;2.77;2.57;;;23.60;76.80;;;;;;5242857;28;20205;-42
2023/08/30 11:36:34;;;;;;;2.27;1.80;;;23.50;77.20;;;;;;5242549;28;20925;-42
2023/08/30 11:39:07;;;;;;;4.20;2.90;;;23.40;76.90;;;;;;5242744;28;20456;-42
2023/08/30 11:41:38;;;;;;;6.20;2.40;;;23.20;77.10;;;;;;5245440;28;20437;-42
2023/08/30 11:44:09;;;;;;;1.97;1.87;;;23.20;78.70;;;;;;5248739;28;20456;-43
2023/08/30 11:46:40;;;;;;;2.70;2.50;;;23.40;79.10;;;;;;5247410;28;20481;-40
2023/08/30 11:49:11;;;;;;;2.30;1.90;;;23.30;76.80;;;;;;5239354;28;20460;-42
2023/08/30 11:51:42;;;;;;;3.03;2.73;;;23.30;76.60;;;;;;5248835;28;20269;-41
2023/08/30 11:54:13;;;;;;;1.37;1.37;;;23.40;74.50;;;;;;5234558;28;20444;-45
2023/08/30 11:56:43;;;;;;;2.50;2.30;;;23.00;74.30;;;;;;5235226;28;20440;-42
2023/08/30 11:59:25;;;;;;;1.47;1.40;;;22.90;76.10;;;;;;5234325;28;20299;-42
2023/08/30 12:01:56;;;;;;;1.30;1.30;;;22.70;77.50;;;;;;5243432;28;20222;-43
2023/08/30 12:04:26;;;;;;;1.27;1.17;;;22.80;77.70;;;;;;5251933;28;20484;-45
2023/08/30 12:06:58;;;;;;;1.20;1.20;;;23.10;77.70;;;;;;5247561;28;20604;-41
2023/08/30 12:09:32;;;;;;;1.80;1.30;;;23.40;76.70;;;;;;5246061;28;20198;-42
2023/08/30 12:12:10;;;;;;;3.10;2.73;;;23.20;74.30;;;;;;5242676;28;20444;-40
2023/08/30 12:14:41;;;;;;;2.93;1.53;;;23.00;75.70;;;;;;5242816;28;20560;-42
2023/08/30 12:17:12;;;;;;;1.87;1.77;;;22.90;76.70;;;;;;5257718;28;20483;-42
2023/08/30 12:19:42;;;;;;;1.70;1.60;;;23.00;76.90;;;;;;5243798;28;20236;-42
2023/08/30 12:22:13;;;;;;;1.67;1.33;;;23.20;76.20;;;;;;5247784;28;20178;-42
2023/08/30 12:24:44;;;;;;;2.63;1.73;;;23.40;75.70;;;;;;5245662;28;20285;-41
2023/08/30 12:27:15;;;;;;;2.20;2.10;;;23.60;73.20;;;;;;5258913;28;20216;-43
2023/08/30 12:29:46;;;;;;;3.77;2.10;;;23.70;73.30;;;;;;5250063;28;20456;-42
2023/08/30 12:32:16;;;;;;;5.70;1.00;;;23.90;73.80;;;;;;5248641;28;20187;-41
2023/08/30 12:34:47;;;;;;;2.63;2.43;;;24.10;71.70;;;;;;5250375;28;20236;-42
2023/08/30 12:37:17;;;;;;;3.10;2.90;;;24.20;70.50;;;;;;5245522;28;20208;-42
2023/08/30 12:39:48;;;;;;;1.97;1.63;;;24.00;70.10;;;;;;5247307;28;20202;-43
2023/08/30 12:42:19;;;;;;;0.93;0.87;;;23.80;69.20;;;;;;5244428;28;20178;-42
2023/08/30 12:44:49;;;;;;;1.83;1.73;;;23.60;68.70;;;;;;5246707;28;20647;-44
2023/08/30 12:47:20;;;;;;;2.10;1.90;;;23.40;69.90;;;;;;5240783;28;20448;-41
2023/08/30 12:49:51;;;;;;;1.27;1.10;;;23.40;70.80;;;;;;5244186;28;20282;-41
2023/08/30 12:52:22;;;;;;;3.90;1.77;;;23.10;70.30;;;;;;5240614;28;20315;-45
2023/08/30 12:54:53;;;;;;;1.70;1.60;;;23.10;70.70;;;;;;5243850;28;20230;-42
2023/08/30 12:57:26;;;;;;;1.53;1.53;;;22.90;69.70;;;;;;5243177;28;20257;-43
2023/08/30 12:59:56;;;;;;;1.70;1.20;;;22.80;71.10;;;;;;5244225;28;20476;-42
2023/08/30 13:02:27;;;;;;;1.73;1.63;;;22.70;71.40;;;;;;5241655;28;20978;-43
2023/08/30 13:04:58;;;;;;;1.90;1.80;;;22.60;71.80;;;;;;5250448;28;20674;-43
2023/08/30 13:07:28;;;;;;;1.47;1.03;;;22.40;72.20;;;;;;5243571;28;20181;-42
2023/08/30 13:09:59;;;;;;;2.23;1.37;;;22.30;72.80;;;;;;5240267;28;20658;-43